sensor_id;sensor_type;location;lat;lon;timestamp;P1;durP1;ratioP1;P2;durP2;ratioP2
46689;SDS011;32423;45.398;10.874;2023-02-10T00:01:25;20.33;;;10.52;;
46689;SDS011;32423;45.398;10.874;2023-02-10T00:04:20;21.33;;;8.50;;
46689;SDS011;32423;45.398;10.874;2023-02-10T00:07:14;22.35;;;12.02;;
46689;SDS011;32423;45.398;10.874;2023-02-10T00:10:09;21.20;;;8.82;;
46689;SDS011;32423;45.398;10.874;2023-02-10T00:13:04;16.00;;;7.87;;
46689;SDS011;32423;45.398;10.874;2023-02-10T00:15:56;24.05;;;10.65;;
46689;SDS011;32423;45.398;10.874;2023-02-10T00:18:51;16.13;;;9.45;;
46689;SDS011;32423;45.398;10.874;2023-02-10T00:21:45;17.67;;;9.57;;
46689;SDS011;32423;45.398;10.874;2023-02-10T00:24:40;14.93;;;9.15;;
46689;SDS011;32423;45.398;10.874;2023-02-10T00:27:34;19.05;;;9.98;;
46689;SDS011;32423;45.398;10.874;2023-02-10T00:30:29;23.15;;;12.13;;
46689;SDS011;32423;45.398;10.874;2023-02-10T00:33:24;21.70;;;11.75;;
46689;SDS011;32423;45.398;10.874;2023-02-10T00:36:16;24.77;;;10.95;;
46689;SDS011;32423;45.398;10.874;2023-02-10T00:42:07;20.15;;;9.80;;
46689;SDS011;32423;45.398;10.874;2023-02-10T00:45:01;16.67;;;9.07;;
46689;SDS011;32423;45.398;10.874;2023-02-10T00:47:56;13.73;;;6.40;;
46689;SDS011;32423;45.398;10.874;2023-02-10T00:50:51;13.50;;;8.63;;
46689;SDS011;32423;45.398;10.874;2023-02-10T00:53:45;13.82;;;8.95;;
46689;SDS011;32423;45.398;10.874;2023-02-10T00:56:40;16.95;;;8.30;;
46689;SDS011;32423;45.398;10.874;2023-02-10T00:59:34;21.63;;;10.27;;
46689;SDS011;32423;45.398;10.874;2023-02-10T01:02:29;16.60;;;9.07;;
46689;SDS011;32423;45.398;10.874;2023-02-10T01:05:24;21.33;;;8.70;;
46689;SDS011;32423;45.398;10.874;2023-02-10T01:08:18;16.15;;;9.32;;
46689;SDS011;32423;45.398;10.874;2023-02-10T01:11:10;15.40;;;8.18;;
46689;SDS011;32423;45.398;10.874;2023-02-10T01:14:06;13.75;;;8.07;;
46689;SDS011;32423;45.398;10.874;2023-02-10T01:16:58;17.55;;;9.57;;
46689;SDS011;32423;45.398;10.874;2023-02-10T01:19:50;17.10;;;8.55;;
46689;SDS011;32423;45.398;10.874;2023-02-10T01:22:45;17.67;;;9.25;;
46689;SDS011;32423;45.398;10.874;2023-02-10T01:25:39;13.15;;;6.45;;
46689;SDS011;32423;45.398;10.874;2023-02-10T01:28:32;14.10;;;7.60;;
46689;SDS011;32423;45.398;10.874;2023-02-10T01:31:26;18.17;;;9.60;;
46689;SDS011;32423;45.398;10.874;2023-02-10T01:34:21;21.30;;;10.30;;
46689;SDS011;32423;45.398;10.874;2023-02-10T01:37:13;22.13;;;10.48;;
46689;SDS011;32423;45.398;10.874;2023-02-10T01:40:05;16.45;;;8.85;;
46689;SDS011;32423;45.398;10.874;2023-02-10T01:43:00;15.05;;;8.43;;
46689;SDS011;32423;45.398;10.874;2023-02-10T01:46:02;17.95;;;9.23;;
46689;SDS011;32423;45.398;10.874;2023-02-10T01:48:56;18.92;;;9.50;;
46689;SDS011;32423;45.398;10.874;2023-02-10T01:51:58;17.20;;;9.07;;
46689;SDS011;32423;45.398;10.874;2023-02-10T01:54:56;21.60;;;9.82;;
46689;SDS011;32423;45.398;10.874;2023-02-10T01:57:55;18.10;;;10.07;;
46689;SDS011;32423;45.398;10.874;2023-02-10T02:00:49;22.50;;;9.23;;
46689;SDS011;32423;45.398;10.874;2023-02-10T02:03:45;12.57;;;6.70;;
46689;SDS011;32423;45.398;10.874;2023-02-10T02:06:39;20.73;;;8.18;;
46689;SDS011;32423;45.398;10.874;2023-02-10T02:09:35;17.02;;;6.25;;
46689;SDS011;32423;45.398;10.874;2023-02-10T02:15:53;16.95;;;9.13;;
46689;SDS011;32423;45.398;10.874;2023-02-10T02:21:59;18.15;;;6.97;;
46689;SDS011;32423;45.398;10.874;2023-02-10T02:25:15;17.38;;;9.40;;
46689;SDS011;32423;45.398;10.874;2023-02-10T02:28:23;21.48;;;10.35;;
46689;SDS011;32423;45.398;10.874;2023-02-10T02:35:06;24.73;;;9.48;;
46689;SDS011;32423;45.398;10.874;2023-02-10T02:38:03;15.55;;;8.43;;
46689;SDS011;32423;45.398;10.874;2023-02-10T02:40:58;14.40;;;8.20;;
46689;SDS011;32423;45.398;10.874;2023-02-10T02:43:52;16.25;;;7.93;;
46689;SDS011;32423;45.398;10.874;2023-02-10T02:59:41;17.17;;;8.48;;
46689;SDS011;32423;45.398;10.874;2023-02-10T03:02:40;26.02;;;8.88;;
46689;SDS011;32423;45.398;10.874;2023-02-10T03:05:34;27.92;;;10.35;;
46689;SDS011;32423;45.398;10.874;2023-02-10T03:08:26;24.25;;;9.85;;
46689;SDS011;32423;45.398;10.874;2023-02-10T03:11:21;17.27;;;7.70;;
46689;SDS011;32423;45.398;10.874;2023-02-10T03:14:16;19.25;;;8.68;;
46689;SDS011;32423;45.398;10.874;2023-02-10T03:17:11;19.45;;;9.18;;
46689;SDS011;32423;45.398;10.874;2023-02-10T03:20:05;20.88;;;9.70;;
46689;SDS011;32423;45.398;10.874;2023-02-10T03:23:01;12.52;;;7.15;;
46689;SDS011;32423;45.398;10.874;2023-02-10T03:25:56;14.75;;;7.25;;
46689;SDS011;32423;45.398;10.874;2023-02-10T03:28:50;11.80;;;7.35;;
46689;SDS011;32423;45.398;10.874;2023-02-10T03:31:45;13.23;;;9.07;;
46689;SDS011;32423;45.398;10.874;2023-02-10T03:34:40;15.60;;;8.25;;
46689;SDS011;32423;45.398;10.874;2023-02-10T03:37:34;19.70;;;9.85;;
46689;SDS011;32423;45.398;10.874;2023-02-10T03:40:29;15.43;;;8.00;;
46689;SDS011;32423;45.398;10.874;2023-02-10T03:43:23;17.00;;;9.05;;
46689;SDS011;32423;45.398;10.874;2023-02-10T03:46:18;10.52;;;6.40;;
46689;SDS011;32423;45.398;10.874;2023-02-10T03:49:10;15.25;;;8.32;;
46689;SDS011;32423;45.398;10.874;2023-02-10T03:52:05;23.15;;;8.82;;
46689;SDS011;32423;45.398;10.874;2023-02-10T03:55:00;12.93;;;5.97;;
46689;SDS011;32423;45.398;10.874;2023-02-10T03:57:54;20.40;;;8.90;;
46689;SDS011;32423;45.398;10.874;2023-02-10T04:00:49;23.15;;;8.18;;
46689;SDS011;32423;45.398;10.874;2023-02-10T04:03:44;16.20;;;6.68;;
46689;SDS011;32423;45.398;10.874;2023-02-10T04:09:32;20.58;;;7.95;;
46689;SDS011;32423;45.398;10.874;2023-02-10T04:12:26;12.43;;;8.20;;
46689;SDS011;32423;45.398;10.874;2023-02-10T04:15:20;23.63;;;9.10;;
46689;SDS011;32423;45.398;10.874;2023-02-10T04:18:15;29.83;;;9.68;;
46689;SDS011;32423;45.398;10.874;2023-02-10T04:21:10;27.67;;;9.43;;
46689;SDS011;32423;45.398;10.874;2023-02-10T04:24:03;21.95;;;9.80;;
46689;SDS011;32423;45.398;10.874;2023-02-10T04:26:57;20.23;;;10.30;;
46689;SDS011;32423;45.398;10.874;2023-02-10T04:29:52;17.27;;;9.77;;
46689;SDS011;32423;45.398;10.874;2023-02-10T04:32:46;18.08;;;8.48;;
46689;SDS011;32423;45.398;10.874;2023-02-10T04:35:41;20.55;;;10.35;;
46689;SDS011;32423;45.398;10.874;2023-02-10T04:38:38;23.08;;;11.38;;
46689;SDS011;32423;45.398;10.874;2023-02-10T04:41:33;13.50;;;8.15;;
46689;SDS011;32423;45.398;10.874;2023-02-10T04:44:28;18.38;;;10.05;;
46689;SDS011;32423;45.398;10.874;2023-02-10T04:47:22;30.45;;;8.63;;
46689;SDS011;32423;45.398;10.874;2023-02-10T04:50:15;22.25;;;10.45;;
46689;SDS011;32423;45.398;10.874;2023-02-10T04:53:04;21.63;;;10.10;;
46689;SDS011;32423;45.398;10.874;2023-02-10T04:55:58;26.23;;;9.52;;
46689;SDS011;32423;45.398;10.874;2023-02-10T04:58:53;16.48;;;10.10;;
46689;SDS011;32423;45.398;10.874;2023-02-10T05:01:47;18.88;;;10.32;;
46689;SDS011;32423;45.398;10.874;2023-02-10T05:04:42;17.42;;;9.07;;
46689;SDS011;32423;45.398;10.874;2023-02-10T05:07:34;21.58;;;10.63;;
46689;SDS011;32423;45.398;10.874;2023-02-10T05:10:26;23.42;;;10.80;;
46689;SDS011;32423;45.398;10.874;2023-02-10T05:13:19;27.15;;;10.35;;
46689;SDS011;32423;45.398;10.874;2023-02-10T05:16:11;24.42;;;11.45;;
46689;SDS011;32423;45.398;10.874;2023-02-10T05:19:04;20.00;;;10.98;;
46689;SDS011;32423;45.398;10.874;2023-02-10T05:21:56;26.77;;;10.90;;
46689;SDS011;32423;45.398;10.874;2023-02-10T05:24:51;20.55;;;9.60;;
46689;SDS011;32423;45.398;10.874;2023-02-10T05:27:40;17.48;;;9.88;;
46689;SDS011;32423;45.398;10.874;2023-02-10T05:30:35;17.88;;;9.70;;
46689;SDS011;32423;45.398;10.874;2023-02-10T05:33:29;20.10;;;10.10;;
46689;SDS011;32423;45.398;10.874;2023-02-10T05:36:24;27.90;;;12.40;;
46689;SDS011;32423;45.398;10.874;2023-02-10T05:39:16;21.15;;;9.55;;
46689;SDS011;32423;45.398;10.874;2023-02-10T05:42:16;23.63;;;10.73;;
46689;SDS011;32423;45.398;10.874;2023-02-10T05:45:11;23.50;;;12.70;;
46689;SDS011;32423;45.398;10.874;2023-02-10T05:48:05;21.40;;;12.55;;
46689;SDS011;32423;45.398;10.874;2023-02-10T05:51:00;28.37;;;11.03;;
46689;SDS011;32423;45.398;10.874;2023-02-10T05:53:49;25.27;;;13.68;;
46689;SDS011;32423;45.398;10.874;2023-02-10T05:56:44;28.15;;;13.70;;
46689;SDS011;32423;45.398;10.874;2023-02-10T05:59:36;24.05;;;12.55;;
46689;SDS011;32423;45.398;10.874;2023-02-10T06:02:31;34.25;;;14.80;;
46689;SDS011;32423;45.398;10.874;2023-02-10T06:05:26;19.73;;;10.95;;
46689;SDS011;32423;45.398;10.874;2023-02-10T06:08:20;28.83;;;14.73;;
46689;SDS011;32423;45.398;10.874;2023-02-10T06:11:15;40.30;;;19.48;;
46689;SDS011;32423;45.398;10.874;2023-02-10T06:14:07;46.58;;;21.02;;
46689;SDS011;32423;45.398;10.874;2023-02-10T06:16:59;47.38;;;19.50;;
46689;SDS011;32423;45.398;10.874;2023-02-10T06:19:52;37.78;;;17.90;;
46689;SDS011;32423;45.398;10.874;2023-02-10T06:22:47;48.17;;;24.10;;
46689;SDS011;32423;45.398;10.874;2023-02-10T06:25:42;32.08;;;14.38;;
46689;SDS011;32423;45.398;10.874;2023-02-10T06:28:36;27.73;;;16.25;;
46689;SDS011;32423;45.398;10.874;2023-02-10T06:31:31;48.53;;;18.63;;
46689;SDS011;32423;45.398;10.874;2023-02-10T06:34:23;64.28;;;21.50;;
46689;SDS011;32423;45.398;10.874;2023-02-10T06:37:15;46.05;;;20.52;;
46689;SDS011;32423;45.398;10.874;2023-02-10T06:40:10;50.50;;;25.25;;
46689;SDS011;32423;45.398;10.874;2023-02-10T06:43:04;47.97;;;19.97;;
46689;SDS011;32423;45.398;10.874;2023-02-10T06:45:59;68.65;;;27.98;;
46689;SDS011;32423;45.398;10.874;2023-02-10T06:48:54;57.65;;;26.35;;
46689;SDS011;32423;45.398;10.874;2023-02-10T06:51:46;61.70;;;26.13;;
46689;SDS011;32423;45.398;10.874;2023-02-10T06:54:38;69.03;;;28.27;;
46689;SDS011;32423;45.398;10.874;2023-02-10T06:57:30;61.30;;;26.10;;
46689;SDS011;32423;45.398;10.874;2023-02-10T07:00:23;69.95;;;28.10;;
46689;SDS011;32423;45.398;10.874;2023-02-10T07:03:27;63.90;;;26.77;;
46689;SDS011;32423;45.398;10.874;2023-02-10T07:06:22;70.47;;;34.42;;
46689;SDS011;32423;45.398;10.874;2023-02-10T07:09:16;71.47;;;31.92;;
46689;SDS011;32423;45.398;10.874;2023-02-10T07:12:13;73.65;;;28.27;;
46689;SDS011;32423;45.398;10.874;2023-02-10T07:15:11;59.80;;;30.67;;
46689;SDS011;32423;45.398;10.874;2023-02-10T07:18:06;71.03;;;30.73;;
46689;SDS011;32423;45.398;10.874;2023-02-10T07:21:01;64.65;;;27.65;;
46689;SDS011;32423;45.398;10.874;2023-02-10T07:23:55;69.18;;;30.02;;
46689;SDS011;32423;45.398;10.874;2023-02-10T07:26:50;50.55;;;23.88;;
46689;SDS011;32423;45.398;10.874;2023-02-10T07:29:45;44.72;;;20.42;;
46689;SDS011;32423;45.398;10.874;2023-02-10T07:32:34;66.63;;;27.48;;
46689;SDS011;32423;45.398;10.874;2023-02-10T07:35:29;55.65;;;25.20;;
46689;SDS011;32423;45.398;10.874;2023-02-10T07:38:18;69.80;;;27.98;;
46689;SDS011;32423;45.398;10.874;2023-02-10T07:41:10;51.22;;;25.88;;
46689;SDS011;32423;45.398;10.874;2023-02-10T07:44:05;51.75;;;26.45;;
46689;SDS011;32423;45.398;10.874;2023-02-10T07:47:00;65.03;;;26.67;;
46689;SDS011;32423;45.398;10.874;2023-02-10T07:49:51;45.72;;;22.85;;
46689;SDS011;32423;45.398;10.874;2023-02-10T07:52:46;43.63;;;21.25;;
46689;SDS011;32423;45.398;10.874;2023-02-10T07:55:40;49.50;;;23.67;;
46689;SDS011;32423;45.398;10.874;2023-02-10T07:58:35;44.03;;;18.05;;
46689;SDS011;32423;45.398;10.874;2023-02-10T08:01:30;44.33;;;22.80;;
46689;SDS011;32423;45.398;10.874;2023-02-10T08:04:22;41.50;;;21.95;;
46689;SDS011;32423;45.398;10.874;2023-02-10T08:07:17;32.07;;;15.23;;
46689;SDS011;32423;45.398;10.874;2023-02-10T08:10:11;33.70;;;16.00;;
46689;SDS011;32423;45.398;10.874;2023-02-10T08:13:07;32.85;;;18.10;;
46689;SDS011;32423;45.398;10.874;2023-02-10T08:16:02;37.35;;;19.00;;
46689;SDS011;32423;45.398;10.874;2023-02-10T08:18:57;38.58;;;14.55;;
46689;SDS011;32423;45.398;10.874;2023-02-10T08:21:52;25.67;;;12.90;;
46689;SDS011;32423;45.398;10.874;2023-02-10T08:24:46;38.47;;;15.98;;
46689;SDS011;32423;45.398;10.874;2023-02-10T08:27:41;36.90;;;15.65;;
46689;SDS011;32423;45.398;10.874;2023-02-10T08:30:35;28.90;;;13.68;;
46689;SDS011;32423;45.398;10.874;2023-02-10T08:33:30;28.92;;;12.68;;
46689;SDS011;32423;45.398;10.874;2023-02-10T08:36:25;24.45;;;12.25;;
46689;SDS011;32423;45.398;10.874;2023-02-10T08:39:20;28.60;;;14.25;;
46689;SDS011;32423;45.398;10.874;2023-02-10T08:42:14;27.58;;;15.15;;
46689;SDS011;32423;45.398;10.874;2023-02-10T08:45:09;29.83;;;15.05;;
46689;SDS011;32423;45.398;10.874;2023-02-10T08:48:03;38.65;;;14.52;;
46689;SDS011;32423;45.398;10.874;2023-02-10T08:50:56;26.15;;;11.45;;
46689;SDS011;32423;45.398;10.874;2023-02-10T08:53:50;27.85;;;15.73;;
46689;SDS011;32423;45.398;10.874;2023-02-10T08:56:45;27.30;;;14.20;;
46689;SDS011;32423;45.398;10.874;2023-02-10T08:59:36;26.73;;;15.60;;
46689;SDS011;32423;45.398;10.874;2023-02-10T09:02:30;33.42;;;15.38;;
46689;SDS011;32423;45.398;10.874;2023-02-10T09:05:25;30.23;;;13.80;;
46689;SDS011;32423;45.398;10.874;2023-02-10T09:08:19;26.98;;;13.75;;
46689;SDS011;32423;45.398;10.874;2023-02-10T09:11:11;32.00;;;14.27;;
46689;SDS011;32423;45.398;10.874;2023-02-10T09:14:03;26.15;;;13.75;;
46689;SDS011;32423;45.398;10.874;2023-02-10T09:16:58;29.83;;;13.82;;
46689;SDS011;32423;45.398;10.874;2023-02-10T09:19:50;41.47;;;14.50;;
46689;SDS011;32423;45.398;10.874;2023-02-10T09:22:45;18.83;;;10.20;;
46689;SDS011;32423;45.398;10.874;2023-02-10T09:25:39;23.15;;;12.15;;
46689;SDS011;32423;45.398;10.874;2023-02-10T09:28:34;29.48;;;12.90;;
46689;SDS011;32423;45.398;10.874;2023-02-10T09:31:28;26.40;;;13.15;;
46689;SDS011;32423;45.398;10.874;2023-02-10T09:34:23;21.45;;;11.75;;
46689;SDS011;32423;45.398;10.874;2023-02-10T09:40:11;28.20;;;12.82;;
46689;SDS011;32423;45.398;10.874;2023-02-10T09:46:18;18.33;;;11.82;;
46689;SDS011;32423;45.398;10.874;2023-02-10T09:56:16;22.90;;;11.00;;
46689;SDS011;32423;45.398;10.874;2023-02-10T09:59:13;25.85;;;13.98;;
46689;SDS011;32423;45.398;10.874;2023-02-10T10:02:13;17.10;;;10.57;;
46689;SDS011;32423;45.398;10.874;2023-02-10T10:05:11;26.52;;;12.25;;
46689;SDS011;32423;45.398;10.874;2023-02-10T10:08:13;23.52;;;10.32;;
46689;SDS011;32423;45.398;10.874;2023-02-10T10:11:22;28.05;;;10.98;;
46689;SDS011;32423;45.398;10.874;2023-02-10T10:20:51;16.85;;;9.68;;
46689;SDS011;32423;45.398;10.874;2023-02-10T10:30:19;16.45;;;9.45;;
46689;SDS011;32423;45.398;10.874;2023-02-10T10:39:38;24.90;;;10.63;;
46689;SDS011;32423;45.398;10.874;2023-02-10T10:42:37;17.83;;;9.73;;
46689;SDS011;32423;45.398;10.874;2023-02-10T10:45:35;22.17;;;13.93;;
46689;SDS011;32423;45.398;10.874;2023-02-10T10:48:31;16.13;;;9.25;;
46689;SDS011;32423;45.398;10.874;2023-02-10T10:51:28;25.48;;;11.50;;
46689;SDS011;32423;45.398;10.874;2023-02-10T10:54:21;13.40;;;8.02;;
46689;SDS011;32423;45.398;10.874;2023-02-10T10:57:16;22.15;;;11.88;;
46689;SDS011;32423;45.398;10.874;2023-02-10T11:03:12;22.15;;;11.20;;
46689;SDS011;32423;45.398;10.874;2023-02-10T11:06:13;18.48;;;10.05;;
46689;SDS011;32423;45.398;10.874;2023-02-10T11:09:16;20.15;;;9.98;;
46689;SDS011;32423;45.398;10.874;2023-02-10T11:12:20;19.98;;;10.60;;
46689;SDS011;32423;45.398;10.874;2023-02-10T11:15:29;30.25;;;10.95;;
46689;SDS011;32423;45.398;10.874;2023-02-10T11:18:29;19.38;;;8.68;;
46689;SDS011;32423;45.398;10.874;2023-02-10T11:21:32;17.23;;;10.35;;
46689;SDS011;32423;45.398;10.874;2023-02-10T11:24:31;20.63;;;9.82;;
46689;SDS011;32423;45.398;10.874;2023-02-10T11:27:26;13.23;;;7.25;;
46689;SDS011;32423;45.398;10.874;2023-02-10T11:33:23;19.60;;;11.35;;
46689;SDS011;32423;45.398;10.874;2023-02-10T11:36:16;19.60;;;11.02;;
